Main page
METAR-TAF:

METAR-TAF

Airports :

Prince Mohammad bin Abdulaziz Airport

Medina, Saudi Arabia

latitude: 24-33N, longitude: 039-42E, elevation: 654 m

Current weather observation

The report was made 26 minutes ago, at 07:00 UTC
Wind 10 kt from the East
Temperature 22°C
Humidity 33%
Pressure 1023 hPa
Visibility: 8000 m

METAR: OEMA 160700Z 10010KT 8000 NSC 22/05 Q1023 NOSIG

Time: 10:26 (07:26 UTC)

Forecast

The report was made 2 hours and 26 minutes ago, at 05:00 UTC
Forecast valid from 16 at 06 UTC to 17 at 12 UTC
Wind 6 kt from the Southeast with gusts up to 16 kt
Visibility: 8000 m
Few clouds at a height of 4500 ft
Scattered clouds at a height of 10000 ft
Temporary
from 16 at 06 UTC to 16 at 16 UTC
Visibility: 4000 m
Scattered clouds at a height of 4500 ft
widespread dust, Blowing dust
Becoming
from 16 at 10 UTC to 16 at 12 UTC
Wind 10 kt from the West/Southwest

TAF: OEMA 160500Z 1606/1712 14006G16KT 8000 FEW045 SCT100 TEMPO 1606/1616 4000 DU BLDU SCT045 BECMG 1610/1612 24010KT

Weather observations and forecasts of more than 4000 airports (METAR and TAF reports).

The available stations are represented by yellow and red dots on the map.

Hover mouse over dot to see the name of the station.

Then click to see weather observations and forecasts.

To change the map : click on the green buttons with a black cross to zoom in, on the green button with a dash to zoom out, or on the green arrows for adjacent maps.


METAR-TAF: